createdAt,value
2022-07-25T04:16:38.538Z,19.75
2022-07-25T04:19:06.848Z,19.69
2022-07-25T04:21:33.509Z,19.67
2022-07-25T04:24:00.114Z,19.66
2022-07-25T04:26:26.611Z,19.53
2022-07-25T04:28:54.726Z,19.42
2022-07-25T04:31:38.894Z,19.58
2022-07-25T04:34:23.550Z,19.55
2022-07-25T04:36:51.787Z,19.61
2022-07-25T04:39:18.348Z,19.63
2022-07-25T04:41:44.842Z,19.66
2022-07-25T04:44:11.401Z,19.68
2022-07-25T04:46:38.020Z,19.79
2022-07-25T04:49:04.813Z,19.87
2022-07-25T04:51:31.389Z,19.91
2022-07-25T04:53:57.949Z,19.87
2022-07-25T04:56:24.460Z,19.85
2022-07-25T04:58:54.046Z,19.93
2022-07-25T05:01:20.589Z,19.93
2022-07-25T05:03:50.010Z,19.83
2022-07-25T05:06:18.751Z,19.98
2022-07-25T05:08:45.420Z,19.90
2022-07-25T05:11:11.985Z,19.88
2022-07-25T05:13:38.507Z,19.82
2022-07-25T05:16:05.567Z,20.05
2022-07-25T05:18:34.281Z,20.07
2022-07-25T05:21:03.900Z,20.16
2022-07-25T05:23:30.450Z,20.21
2022-07-25T05:25:57.628Z,20.22
2022-07-25T05:28:24.098Z,20.25
2022-07-25T05:30:50.652Z,20.32
2022-07-25T05:33:17.173Z,20.39
2022-07-25T05:35:52.971Z,20.44
2022-07-25T05:38:19.769Z,20.52
2022-07-25T05:40:46.323Z,20.57
2022-07-25T05:43:12.891Z,20.61
2022-07-25T05:45:39.349Z,20.68
2022-07-25T05:48:06.602Z,20.71
2022-07-25T05:50:33.127Z,20.71
2022-07-25T05:52:59.688Z,20.81
2022-07-25T05:55:26.221Z,20.80
2022-07-25T05:57:52.763Z,20.85
2022-07-25T06:00:19.361Z,20.90
2022-07-25T06:02:45.986Z,20.88
2022-07-25T06:05:12.728Z,20.93
2022-07-25T06:07:39.793Z,20.88
2022-07-25T06:10:06.448Z,20.99
2022-07-25T06:12:33.733Z,21.02
2022-07-25T06:15:04.208Z,21.12
2022-07-25T06:17:32.700Z,21.19
2022-07-25T06:19:59.524Z,21.20
2022-07-25T06:22:26.365Z,21.28
2022-07-25T06:24:52.974Z,21.27
2022-07-25T06:27:21.107Z,21.27
2022-07-25T06:29:49.663Z,21.38
2022-07-25T06:36:12.144Z,21.50
2022-07-25T06:38:38.712Z,21.57
2022-07-25T06:41:05.360Z,21.62
2022-07-25T06:43:31.900Z,21.51
2022-07-25T06:45:58.383Z,21.73
2022-07-25T06:48:24.995Z,21.79
2022-07-25T06:50:51.684Z,21.85
2022-07-25T06:53:18.520Z,21.81
2022-07-25T06:55:45.552Z,21.98
2022-07-25T06:58:12.136Z,22.04
2022-07-25T07:00:43.966Z,22.15
2022-07-25T07:03:10.867Z,21.83
2022-07-25T07:05:39.424Z,22.12
2022-07-25T07:08:06.129Z,22.30
2022-07-25T07:10:37.898Z,22.36
2022-07-25T07:13:09.462Z,22.38
2022-07-25T07:15:37.065Z,22.28
2022-07-25T07:18:06.317Z,22.55
2022-07-25T07:20:33.144Z,22.71
2022-07-25T07:22:59.664Z,22.97
2022-07-25T07:25:28.312Z,22.58
2022-07-25T07:27:55.261Z,22.73
2022-07-25T07:30:24.435Z,22.79
2022-07-25T07:33:02.079Z,23.40
2022-07-25T07:35:28.667Z,23.39
2022-07-25T07:38:01.407Z,23.44
2022-07-25T07:40:28.091Z,23.67
2022-07-25T07:42:57.194Z,23.71
2022-07-25T07:46:33.992Z,23.78
2022-07-25T07:49:29.863Z,24.14
2022-07-25T07:52:06.898Z,24.13
2022-07-25T07:54:56.473Z,24.17
2022-07-25T07:57:31.981Z,24.35
2022-07-25T07:59:59.483Z,23.83
2022-07-25T08:02:27.117Z,24.46
2022-07-25T08:04:53.823Z,24.42
2022-07-25T08:07:20.501Z,24.29
2022-07-25T08:09:47.048Z,24.32
2022-07-25T08:12:13.571Z,24.50
2022-07-25T08:14:42.139Z,24.83
2022-07-25T08:17:08.722Z,24.55
2022-07-25T08:19:39.350Z,24.61
2022-07-25T08:22:05.864Z,24.79
2022-07-25T08:24:32.365Z,25.07
2022-07-25T08:27:01.899Z,25.12
2022-07-25T08:29:28.565Z,24.56
2022-07-25T08:31:55.039Z,25.04
2022-07-25T08:34:26.673Z,25.03
2022-07-25T08:36:53.156Z,25.48
2022-07-25T08:39:19.950Z,25.48
2022-07-25T08:41:47.636Z,25.57
2022-07-25T08:44:16.203Z,25.59
2022-07-25T08:46:43.776Z,25.82
2022-07-25T08:49:10.676Z,26.07
2022-07-25T08:51:38.591Z,25.98
2022-07-25T08:54:06.060Z,26.14
2022-07-25T08:56:33.966Z,26.51
2022-07-25T08:59:00.782Z,26.19
2022-07-25T09:01:31.646Z,26.15
2022-07-25T09:04:27.410Z,26.53
2022-07-25T09:07:17.959Z,26.06
2022-07-25T09:09:51.356Z,26.37
2022-07-25T09:12:27.593Z,26.95
2022-07-25T09:14:57.845Z,26.61
2022-07-25T09:17:30.402Z,26.51
2022-07-25T09:20:05.535Z,26.78
2022-07-25T09:22:51.682Z,26.95
2022-07-25T09:25:39.339Z,27.02
2022-07-25T09:28:31.114Z,27.06
2022-07-25T09:31:02.809Z,26.98
2022-07-25T09:33:34.315Z,27.24
2022-07-25T09:36:12.357Z,27.07
2022-07-25T09:39:17.710Z,27.38
2022-07-25T09:41:53.405Z,27.65
2022-07-25T09:44:30.434Z,27.58
2022-07-25T09:47:16.197Z,27.95
2022-07-25T09:50:09.753Z,28.21
2022-07-25T09:53:02.784Z,28.40
2022-07-25T09:56:35.214Z,29.00
2022-07-25T10:02:47.628Z,28.65
2022-07-25T10:05:22.047Z,28.28
2022-07-25T10:07:54.772Z,28.65
2022-07-25T10:10:43.543Z,28.77
2022-07-25T10:13:29.649Z,28.87
2022-07-25T10:15:59.969Z,29.06
2022-07-25T10:18:31.527Z,28.96
2022-07-25T10:21:25.564Z,28.98
2022-07-25T10:24:09.996Z,29.43
2022-07-25T10:26:52.609Z,29.83
2022-07-25T10:29:19.115Z,29.66
2022-07-25T10:31:50.632Z,30.14
2022-07-25T10:34:29.022Z,29.66
2022-07-25T10:36:57.095Z,29.93
2022-07-25T10:39:23.952Z,29.95
2022-07-25T10:42:18.218Z,30.06
2022-07-25T10:44:48.304Z,29.85
2022-07-25T10:47:17.301Z,30.08
2022-07-25T10:50:15.303Z,29.87
2022-07-25T10:52:42.556Z,30.09
2022-07-25T10:55:09.345Z,30.17
2022-07-25T10:57:41.596Z,30.46
2022-07-25T11:00:16.953Z,30.55
2022-07-25T11:02:44.274Z,30.19
2022-07-25T11:05:10.798Z,30.05
2022-07-25T11:07:37.238Z,30.90
2022-07-25T11:10:06.163Z,31.53
2022-07-25T11:12:33.425Z,31.56
2022-07-25T11:15:03.744Z,30.29
2022-07-25T11:17:30.553Z,30.69
2022-07-25T11:19:58.239Z,30.99
2022-07-25T11:22:26.306Z,31.06
2022-07-25T11:24:53.485Z,31.53
2022-07-25T11:27:23.913Z,31.86
2022-07-25T11:29:51.305Z,31.69
2022-07-25T11:32:17.961Z,31.41
2022-07-25T11:34:52.536Z,31.54
2022-07-25T11:37:20.366Z,31.52
2022-07-25T11:39:47.871Z,31.66
2022-07-25T11:42:19.697Z,31.68
2022-07-25T11:44:49.129Z,31.16
2022-07-25T11:47:25.216Z,30.89
2022-07-25T11:49:52.913Z,30.97
2022-07-25T11:52:22.004Z,31.14
2022-07-25T11:54:52.823Z,31.12
2022-07-25T11:57:30.754Z,31.03
2022-07-25T12:00:00.394Z,31.07
2022-07-25T12:02:31.125Z,31.49
2022-07-25T12:05:05.052Z,31.74
2022-07-25T12:07:38.654Z,32.14
2022-07-25T12:10:07.777Z,32.16
2022-07-25T12:12:50.403Z,31.87
2022-07-25T12:15:26.595Z,31.90
2022-07-25T12:17:54.992Z,32.21
2022-07-25T12:20:25.978Z,32.18
2022-07-25T12:22:56.451Z,32.01
2022-07-25T12:25:26.397Z,31.81
2022-07-25T12:27:58.730Z,32.20
2022-07-25T12:30:27.426Z,32.04
2022-07-25T12:32:54.329Z,32.26
2022-07-25T12:35:20.842Z,32.46
2022-07-25T12:37:47.659Z,32.34
2022-07-25T12:40:16.408Z,31.88
2022-07-25T12:42:44.150Z,31.72
2022-07-25T12:45:12.457Z,31.76
2022-07-25T12:47:39.183Z,31.65
2022-07-25T12:50:06.341Z,31.93
2022-07-25T12:52:32.997Z,31.38
2022-07-25T12:54:59.573Z,31.93
2022-07-25T12:57:26.217Z,31.37
2022-07-25T12:59:53.075Z,31.10
2022-07-25T13:02:19.695Z,31.52
2022-07-25T13:04:46.277Z,31.23
2022-07-25T13:07:13.545Z,31.46
2022-07-25T13:09:40.132Z,31.44
2022-07-25T13:12:07.079Z,31.64
2022-07-25T13:14:33.581Z,30.90
2022-07-25T13:17:00.682Z,30.63
2022-07-25T13:19:28.474Z,30.59
2022-07-25T13:21:54.959Z,30.40
2022-07-25T13:24:21.436Z,30.09
2022-07-25T13:26:48.097Z,30.09
2022-07-25T13:29:14.606Z,30.85
2022-07-25T13:31:42.077Z,30.21
2022-07-25T13:34:10.006Z,30.23
2022-07-25T13:36:38.150Z,30.44
2022-07-25T13:39:05.643Z,30.86
2022-07-25T13:41:32.925Z,30.89
2022-07-25T13:44:00.295Z,31.09
2022-07-25T13:46:27.034Z,31.19
2022-07-25T13:48:55.095Z,30.92
2022-07-25T13:51:21.636Z,31.30
2022-07-25T13:53:48.230Z,32.05
2022-07-25T13:56:14.746Z,31.71
2022-07-25T13:58:41.654Z,31.53
2022-07-25T14:01:09.499Z,31.39
2022-07-25T14:03:36.890Z,31.92
2022-07-25T14:06:05.062Z,32.50
2022-07-25T14:08:32.078Z,32.54
2022-07-25T14:10:58.620Z,32.88
2022-07-25T14:13:25.178Z,32.61
2022-07-25T14:15:52.175Z,32.65
2022-07-25T14:18:18.760Z,32.82
2022-07-25T14:20:46.530Z,32.08
2022-07-25T14:23:13.480Z,32.18
2022-07-25T14:25:40.081Z,32.24
2022-07-25T14:28:06.838Z,32.26
2022-07-25T14:30:33.499Z,32.29
2022-07-25T14:32:59.994Z,32.46
2022-07-25T14:35:32.166Z,32.33
2022-07-25T14:37:59.071Z,32.46
2022-07-25T14:40:25.673Z,32.50
2022-07-25T14:42:52.157Z,31.92
2022-07-25T14:45:18.875Z,32.21
2022-07-25T14:47:45.390Z,31.95
2022-07-25T14:50:11.913Z,32.14
2022-07-25T14:52:38.557Z,31.94
2022-07-25T14:55:05.787Z,31.46
2022-07-25T14:57:33.174Z,31.41
2022-07-25T15:00:01.844Z,31.96
2022-07-25T15:02:29.845Z,32.54
2022-07-25T15:04:56.414Z,32.12
2022-07-25T15:07:22.959Z,32.69
2022-07-25T15:09:49.403Z,32.25
2022-07-25T15:12:17.390Z,32.60
2022-07-25T15:14:44.067Z,32.88
2022-07-25T15:17:12.773Z,32.27
2022-07-25T15:19:39.472Z,32.21
2022-07-25T15:22:06.279Z,32.69
2022-07-25T15:24:44.487Z,32.56
2022-07-25T15:27:19.351Z,31.62
2022-07-25T15:29:45.910Z,31.52
2022-07-25T15:32:12.444Z,31.70
2022-07-25T15:34:39.269Z,31.93
2022-07-25T15:37:05.812Z,31.90
2022-07-25T15:39:32.477Z,32.01
2022-07-25T15:41:59.172Z,31.96
2022-07-25T15:44:25.739Z,31.86
2022-07-25T15:46:52.453Z,31.56
2022-07-25T15:49:21.162Z,32.05
2022-07-25T15:51:48.094Z,31.90
2022-07-25T15:54:14.736Z,31.63
2022-07-25T15:56:41.427Z,31.40
2022-07-25T15:59:08.479Z,31.48
2022-07-25T16:01:35.304Z,31.63
2022-07-25T16:04:01.910Z,31.40
2022-07-25T16:06:28.503Z,31.29
2022-07-25T16:08:55.167Z,31.10
2022-07-25T16:11:24.791Z,31.06
2022-07-25T16:13:51.395Z,31.16
2022-07-25T16:16:18.074Z,31.34
2022-07-25T16:18:44.789Z,30.70
2022-07-25T16:21:11.393Z,30.30
2022-07-25T16:23:42.583Z,30.21
2022-07-25T16:26:12.309Z,30.50
2022-07-25T16:28:39.857Z,30.63
2022-07-25T16:31:06.869Z,30.24
2022-07-25T16:33:33.751Z,30.30
2022-07-25T16:36:00.388Z,30.09
2022-07-25T16:38:28.768Z,30.11
2022-07-25T16:40:55.636Z,30.48
2022-07-25T16:43:22.173Z,30.56
2022-07-25T16:45:48.719Z,30.36
2022-07-25T16:48:15.675Z,30.03
2022-07-25T16:50:42.274Z,29.83
2022-07-25T16:53:08.767Z,29.62
2022-07-25T16:55:35.253Z,28.80
2022-07-25T16:58:01.721Z,29.21
2022-07-25T17:00:28.321Z,29.01
2022-07-25T17:02:54.797Z,29.25
2022-07-25T17:05:21.351Z,29.26
2022-07-25T17:07:48.863Z,28.44
2022-07-25T17:10:18.649Z,28.66
2022-07-25T17:12:45.264Z,28.54
2022-07-25T17:15:12.383Z,28.50
2022-07-25T17:17:38.991Z,28.43
2022-07-25T17:20:06.014Z,28.75
2022-07-25T17:22:32.928Z,28.43
2022-07-25T17:24:59.418Z,28.70
2022-07-25T17:27:25.936Z,28.23
2022-07-25T17:29:52.499Z,28.63
2022-07-25T17:32:19.004Z,27.98
2022-07-25T17:34:45.587Z,27.70
2022-07-25T17:37:12.166Z,28.17
2022-07-25T17:39:39.980Z,27.51
2022-07-25T17:42:07.207Z,27.91
2022-07-25T17:44:34.789Z,27.73
2022-07-25T17:47:02.859Z,27.53
2022-07-25T17:49:29.770Z,27.73
2022-07-25T17:51:56.251Z,27.00
2022-07-25T17:54:23.193Z,27.32
2022-07-25T17:56:49.786Z,27.50
2022-07-25T17:59:16.489Z,27.17
2022-07-25T18:01:43.143Z,26.85
2022-07-25T18:04:10.083Z,27.06
2022-07-25T18:06:37.853Z,26.92
2022-07-25T18:09:04.554Z,26.93
2022-07-25T18:11:31.080Z,26.84
2022-07-25T18:13:59.401Z,27.00
2022-07-25T18:16:26.492Z,27.12
2022-07-25T18:18:53.066Z,26.67
2022-07-25T18:21:20.690Z,26.47
2022-07-25T18:23:48.322Z,26.26
2022-07-25T18:26:14.912Z,25.62
2022-07-25T18:28:42.554Z,25.58
2022-07-25T18:31:10.347Z,25.20
2022-07-25T18:33:37.154Z,25.45
2022-07-25T18:36:07.593Z,25.40
2022-07-25T18:38:35.465Z,25.72
2022-07-25T18:41:27.396Z,25.46
2022-07-25T18:43:49.985Z,25.92
2022-07-25T18:46:17.806Z,25.54
2022-07-25T18:48:45.200Z,25.31
2022-07-25T18:51:12.099Z,25.68
2022-07-25T18:53:38.853Z,24.97
2022-07-25T18:56:05.904Z,24.99
2022-07-25T18:58:33.650Z,24.78
2022-07-25T19:01:02.792Z,25.27
2022-07-25T19:03:30.094Z,25.18
2022-07-25T19:06:01.270Z,24.86
2022-07-25T19:08:29.978Z,25.06
2022-07-25T19:10:56.624Z,24.89
2022-07-25T19:13:47.789Z,24.68
2022-07-25T19:16:11.984Z,24.90
2022-07-25T19:18:39.323Z,24.73
2022-07-25T19:21:06.077Z,24.75
2022-07-25T19:23:32.794Z,24.38
2022-07-25T19:26:00.846Z,24.56
2022-07-25T19:28:44.325Z,24.73
2022-07-25T19:31:10.929Z,24.72
2022-07-25T19:33:38.876Z,24.51
2022-07-25T19:36:06.767Z,24.47
2022-07-25T19:38:33.479Z,24.27
2022-07-25T19:41:01.831Z,24.16
2022-07-25T19:43:28.387Z,24.04
2022-07-25T19:45:54.925Z,24.45
2022-07-25T19:48:24.233Z,24.52
2022-07-25T19:50:51.656Z,23.91
2022-07-25T19:53:18.623Z,24.07
2022-07-25T19:55:45.160Z,24.49
2022-07-25T19:58:11.666Z,24.63
2022-07-25T20:00:39.336Z,24.75
2022-07-25T20:03:06.155Z,24.39
2022-07-25T20:05:32.925Z,24.11
2022-07-25T20:08:00.482Z,24.56
2022-07-25T20:10:27.102Z,24.71
2022-07-25T20:12:56.884Z,24.61
2022-07-25T20:16:18.429Z,24.78
2022-07-25T20:18:48.500Z,24.65
2022-07-25T20:21:17.856Z,24.55
2022-07-25T20:23:45.973Z,24.66
2022-07-25T20:26:13.681Z,24.64
2022-07-25T20:28:45.874Z,24.63
2022-07-25T20:31:12.800Z,24.61
2022-07-25T20:33:39.453Z,24.11
2022-07-25T20:36:06.242Z,23.95
2022-07-25T20:38:32.820Z,23.73
2022-07-25T20:40:59.776Z,23.98
2022-07-25T20:43:39.119Z,23.72
2022-07-25T20:46:12.644Z,23.64
2022-07-25T20:48:41.707Z,23.61
2022-07-25T20:51:08.499Z,23.51
2022-07-25T20:53:35.134Z,23.61
2022-07-25T20:56:02.503Z,23.89
2022-07-25T20:58:29.067Z,23.77
2022-07-25T21:00:56.103Z,23.42
2022-07-25T21:03:22.693Z,24.01
2022-07-25T21:05:49.184Z,23.35
2022-07-25T21:08:15.820Z,23.71
2022-07-25T21:10:42.809Z,23.63
2022-07-25T21:13:10.368Z,23.79
2022-07-25T21:15:37.192Z,23.85
2022-07-25T21:18:03.911Z,23.91
2022-07-25T21:20:30.479Z,23.75
2022-07-25T21:22:57.022Z,23.71
2022-07-25T21:25:23.493Z,23.87
2022-07-25T21:27:50.254Z,23.79
2022-07-25T21:30:16.822Z,23.70
2022-07-25T21:32:44.361Z,23.95
2022-07-25T21:35:20.083Z,23.89
2022-07-25T21:38:26.693Z,23.85
2022-07-25T21:40:56.060Z,23.92
2022-07-25T21:43:22.889Z,23.93
2022-07-25T21:45:49.652Z,24.06
2022-07-25T21:48:16.153Z,24.01
2022-07-25T21:50:51.292Z,24.03
2022-07-25T21:53:17.753Z,24.08
2022-07-25T21:55:44.411Z,23.93
2022-07-25T21:58:10.857Z,23.96
